Change the Weather History Date:

Thursday, March 27, 2014

  Actual Average Record
Temperature  
Mean Temperature 32 °F -  
Max Temperature 35 °F 45 °F 75 °F (1946)
Min Temperature 30 °F 22 °F -4 °F (1965)
Degree Days  
Heating Degree Days 32    
Moisture  
Dew Point 30 °F    
Average Humidity 88    
Maximum Humidity 100    
Minimum Humidity 65    
Precipitation  
Precipitation 0.25 in - - ()
Sea Level Pressure  
Sea Level Pressure 29.57 in    
Wind  
Wind Speed 5 mph (ENE)    
Max Wind Speed 12 mph    
Max Gust Speed 16 mph    
Visibility 5 miles    
Events Rain , Snow    
Averages and records for this station are not official NWS values.
T = Trace of Precipitation, MM = Missing Value Source: NWS Daily Summary

Daily Weather History Graph

Daily Weather History Graph

Search for Another Location

Airport or City:

Trip Planner

Search our weather history database for the weather conditions in past years. The results will help you decide how hot, cold, wet, or windy it might be!

Date:

Astronomy

Mar. 27, 2014 Rise Set
Actual Time 7:02 AM CDT 7:35 PM CDT
Civil Twilight 6:32 AM CDT 8:05 PM CDT
Nautical Twilight 5:57 AM CDT 8:40 PM CDT
Astronomical Twilight 5:20 AM CDT 9:17 PM CDT
Moon 5:04 AM CDT (3/27) 4:14 PM CDT (3/27)
Length of Visible Light 13h 32m
Length of Day
12h 32m
Waning Crescent, 13% of the Moon is Illuminated
Mar 27
Waning Crescent
Mar 30
New
Apr 7
First Quarter
Apr 15
Full
Apr 22
Last Quarter

Hourly Weather History & Observations

Time (CDT) Temp. Windchill Dew Point Humidity Pressure Visibility Wind Dir Wind Speed Gust Speed Precip Events Conditions
12:11 AM 33.8 °F 28.6 °F 23.0 °F 65% 29.58 in 10.0 mi ESE 5.8 mph - N/A   Overcast
12:31 AM 33.8 °F 28.6 °F 23.0 °F 65% 29.58 in 10.0 mi ESE 5.8 mph - N/A   Overcast
12:51 AM 33.8 °F 29.6 °F 23.0 °F 65% 29.58 in 10.0 mi East 4.6 mph - N/A   Overcast
1:10 AM 33.8 °F 29.6 °F 23.0 °F 65% 29.57 in 10.0 mi ESE 4.6 mph - N/A   Overcast
1:31 AM 33.8 °F 28.6 °F 23.0 °F 65% 29.56 in 10.0 mi SE 5.8 mph - N/A   Overcast
1:51 AM 35.6 °F 31.7 °F 26.6 °F 70% 29.55 in 10.0 mi SE 4.6 mph - N/A   Overcast
2:11 AM 35.6 °F 30.7 °F 26.6 °F 70% 29.55 in 10.0 mi SSE 5.8 mph - N/A   Overcast
2:31 AM 35.6 °F 29.2 °F 26.6 °F 70% 29.55 in 10.0 mi South 8.1 mph - N/A   Overcast
2:51 AM 35.6 °F 27.5 °F 30.2 °F 81% 29.55 in 7.0 mi South 11.5 mph - N/A   Overcast
3:11 AM 35.6 °F 29.2 °F 32.0 °F 87% 29.54 in 5.0 mi South 8.1 mph 16.1 mph N/A   Haze
3:31 AM 35.6 °F 29.2 °F 32.0 °F 87% 29.54 in 4.0 mi South 8.1 mph - N/A   Overcast
3:51 AM 33.8 °F 27.7 °F 32.0 °F 93% 29.54 in 3.0 mi South 6.9 mph - N/A   Overcast
4:11 AM 33.8 °F 28.6 °F 32.0 °F 93% 29.53 in 2.5 mi South 5.8 mph - N/A   Drizzle
4:31 AM 33.8 °F 27.7 °F 32.0 °F 93% 29.53 in 2.5 mi South 6.9 mph - N/A   Drizzle
4:51 AM 33.8 °F 29.6 °F 32.0 °F 93% 29.53 in 2.5 mi South 4.6 mph - N/A   Drizzle
5:11 AM 33.8 °F 28.6 °F 32.0 °F 93% 29.52 in 2.5 mi SSE 5.8 mph - N/A   Drizzle
5:30 AM 33.8 °F 29.6 °F 32.0 °F 93% 29.52 in 2.0 mi SSE 4.6 mph - N/A   Drizzle
5:51 AM 33.8 °F 29.6 °F 32.0 °F 93% 29.52 in 2.5 mi SSE 4.6 mph - N/A   Light Drizzle
6:11 AM 33.8 °F 30.8 °F 32.0 °F 93% 29.52 in 2.5 mi SSE 3.5 mph - N/A   Drizzle
6:31 AM 33.8 °F 29.6 °F 32.0 °F 93% 29.52 in 2.5 mi SSE 4.6 mph - N/A   Light Drizzle
6:51 AM 33.8 °F 29.6 °F 32.0 °F 93% 29.52 in 2.5 mi South 4.6 mph - N/A   Overcast
7:10 AM 33.8 °F 29.6 °F 32.0 °F 93% 29.52 in 2.5 mi SSE 4.6 mph - N/A   Overcast
7:31 AM 33.8 °F - 32.0 °F 93% 29.52 in 1.5 mi Calm Calm - N/A   Overcast
7:51 AM 33.8 °F - 32.0 °F 93% 29.52 in 1.5 mi Calm Calm - N/A   Overcast
8:11 AM 33.8 °F 30.8 °F 32.0 °F 93% 29.52 in 1.2 mi SSE 3.5 mph - N/A   Overcast
8:31 AM 33.8 °F - 32.0 °F 93% 29.51 in 1.2 mi Calm Calm - N/A   Overcast
8:50 AM 33.8 °F - 32.0 °F 93% 29.51 in 1.0 mi Calm Calm - N/A   Overcast
9:10 AM 33.8 °F - 32.0 °F 93% 29.51 in 1.0 mi Calm Calm - N/A   Light Drizzle
9:30 AM 33.8 °F - 32.0 °F 93% 29.51 in 0.8 mi Calm Calm - N/A   Light Drizzle
9:51 AM 33.8 °F - 32.0 °F 93% 29.51 in 0.8 mi Calm Calm - N/A   Light Drizzle
10:11 AM 35.6 °F - 33.8 °F 93% 29.51 in 1.0 mi Calm Calm - N/A   Light Drizzle
10:31 AM 35.6 °F - 33.8 °F 93% 29.52 in 1.0 mi Calm Calm - N/A   Drizzle
10:51 AM 33.8 °F - 33.8 °F 100% 29.52 in 0.8 mi Calm Calm - N/A   Drizzle
11:11 AM 33.8 °F - 32.0 °F 93% 29.52 in 1.0 mi Calm Calm - 0.01 in   Drizzle
11:31 AM 33.8 °F - 33.8 °F 100% 29.51 in 1.0 mi Calm Calm - 0.03 in Rain Rain
11:51 AM 35.6 °F - 33.8 °F 93% 29.52 in 1.8 mi Calm Calm - 0.07 in Rain Rain
12:11 PM 35.6 °F - 33.8 °F 93% 29.53 in 2.5 mi Calm Calm - 0.02 in Rain Rain
12:31 PM 35.6 °F - 33.8 °F 93% 29.53 in 3.0 mi Calm Calm - 0.05 in Rain Rain
12:51 PM 33.8 °F 29.6 °F 32.0 °F 93% 29.53 in 5.0 mi NNE 4.6 mph - 0.07 in Rain Light Rain
1:11 PM 33.8 °F 30.8 °F 32.0 °F 93% 29.53 in 3.0 mi NE 3.5 mph - 0.02 in Rain Light Rain
1:31 PM 32.0 °F 27.5 °F 32.0 °F 100% 29.53 in 1.8 mi NNE 4.6 mph - 0.03 in Snow Light Snow
1:51 PM 32.0 °F 26.4 °F 32.0 °F 100% 29.52 in 4.0 mi NE 5.8 mph - 0.03 in Snow Light Snow
2:11 PM 32.0 °F 25.6 °F 30.2 °F 93% 29.52 in 10.0 mi NNE 6.9 mph - N/A   Overcast
2:31 PM 32.0 °F 28.7 °F 30.2 °F 93% 29.52 in 4.0 mi NNE 3.5 mph - N/A Snow Light Snow
2:51 PM 32.0 °F 26.4 °F 30.2 °F 93% 29.53 in 1.0 mi NE 5.8 mph - 0.01 in Snow Light Snow
3:11 PM 32.0 °F 27.5 °F 30.2 °F 93% 29.53 in 0.5 mi NNE 4.6 mph - 0.02 in Snow Snow
3:31 PM 32.0 °F 25.6 °F 30.2 °F 93% 29.54 in 0.5 mi NE 6.9 mph - 0.03 in Snow Snow
3:51 PM 32.0 °F 25.6 °F 30.2 °F 93% 29.55 in 0.8 mi NNE 6.9 mph - 0.04 in Snow Light Snow
4:11 PM 32.0 °F 27.5 °F 30.2 °F 93% 29.55 in 0.8 mi NNE 4.6 mph - N/A Snow Light Snow
4:31 PM 32.0 °F 26.4 °F 28.4 °F 87% 29.55 in 0.8 mi NNE 5.8 mph - 0.01 in Snow Light Snow
4:51 PM 32.0 °F 26.4 °F 30.2 °F 93% 29.56 in 1.0 mi NNE 5.8 mph - 0.02 in Snow Light Snow
5:11 PM 32.0 °F 25.6 °F 30.2 °F 93% 29.57 in 1.5 mi NE 6.9 mph - N/A Snow Light Snow
5:31 PM 32.0 °F 24.8 °F 30.2 °F 93% 29.58 in 2.0 mi NNE 8.1 mph 16.1 mph 0.01 in Snow Light Snow
5:51 PM 32.0 °F 24.8 °F 28.4 °F 87% 29.58 in 3.0 mi NNE 8.1 mph 16.1 mph 0.01 in Snow Light Snow
6:11 PM 32.0 °F 25.6 °F 28.4 °F 87% 29.59 in 2.5 mi NNE 6.9 mph - N/A Snow Light Snow
6:31 PM 32.0 °F 24.8 °F 28.4 °F 87% 29.60 in 2.5 mi NE 8.1 mph 16.1 mph N/A Snow Light Snow
6:51 PM 32.0 °F 26.4 °F 28.4 °F 87% 29.61 in 5.0 mi NNE 5.8 mph - N/A Snow Light Snow
7:11 PM 32.0 °F 23.6 °F 28.4 °F 87% 29.62 in 7.0 mi NNE 10.4 mph - N/A   Overcast
7:31 PM 32.0 °F 27.5 °F 28.4 °F 87% 29.64 in 7.0 mi NNE 4.6 mph - N/A   Overcast
7:51 PM 32.0 °F 25.6 °F 28.4 °F 87% 29.65 in 10.0 mi NNE 6.9 mph - N/A   Overcast
8:11 PM 30.2 °F 22.6 °F 26.6 °F 86% 29.66 in 10.0 mi NE 8.1 mph - N/A   Overcast
8:31 PM 30.2 °F 22.6 °F 26.6 °F 86% 29.68 in 10.0 mi NNE 8.1 mph - N/A   Overcast
8:51 PM 30.2 °F 24.3 °F 26.6 °F 86% 29.69 in 10.0 mi NNE 5.8 mph - N/A   Overcast
9:11 PM 30.2 °F 26.7 °F 26.6 °F 86% 29.70 in 10.0 mi North 3.5 mph - N/A   Overcast
9:31 PM 30.2 °F 23.4 °F 26.6 °F 86% 29.70 in 10.0 mi North 6.9 mph - N/A   Overcast
9:51 PM 30.2 °F 25.4 °F 26.6 °F 86% 29.71 in 10.0 mi North 4.6 mph - N/A   Overcast
10:10 PM 30.2 °F 24.3 °F 26.6 °F 86% 29.72 in 10.0 mi North 5.8 mph - N/A   Overcast
10:31 PM 30.2 °F 25.4 °F 26.6 °F 86% 29.73 in 10.0 mi North 4.6 mph - N/A   Overcast
10:51 PM 30.2 °F 25.4 °F 26.6 °F 86% 29.74 in 10.0 mi North 4.6 mph - N/A   Overcast
11:11 PM 30.2 °F 24.3 °F 24.8 °F 80% 29.75 in 10.0 mi North 5.8 mph - N/A   Overcast
11:31 PM 30.2 °F 24.3 °F 24.8 °F 80% 29.76 in 10.0 mi North 5.8 mph - N/A   Overcast
11:51 PM 30.2 °F 25.4 °F 24.8 °F 80% 29.78 in 10.0 mi North 4.6 mph - N/A   Overcast